Time;durP1;ratioP1;P1;durP2;ratioP2;P2;SDS_P1;SDS_P2;PMS_P1;PMS_P2;Temp;Humidity;BMP_temperature;BMP_pressure;BME280_temperature;BME280_humidity;BME280_pressure;Samples;Min_cycle;Max_cycle;Signal;HPM_P1;HPM_P2
2023/02/27 00:00:25;;;;;;;22.92;6.30;;;;;;;13.34;79.90;96453.09;5138177;27;20482;-79
2023/02/27 00:02:54;;;;;;;23.05;6.88;;;;;;;13.41;79.12;96446.19;5098781;27;20042;-78
2023/02/27 00:05:21;;;;;;;19.45;7.22;;;;;;;13.45;79.05;96452.94;5130442;27;20038;-79
2023/02/27 00:07:53;;;;;;;21.80;6.93;;;;;;;13.52;78.44;96452.25;5107252;27;20042;-79
2023/02/27 00:10:19;;;;;;;20.73;7.05;;;;;;;13.49;78.87;96457.91;5110800;27;20045;-80
2023/02/27 00:12:51;;;;;;;21.95;5.57;;;;;;;13.58;78.84;96445.47;5124860;27;20039;-79
2023/02/27 00:15:22;;;;;;;23.48;6.30;;;;;;;13.54;80.60;96454.78;5149636;27;20503;-80
2023/02/27 00:17:48;;;;;;;26.83;5.85;;;;;;;13.45;85.93;96456.50;5109448;27;20426;-80
2023/02/27 00:20:16;;;;;;;28.52;6.22;;;;;;;13.42;86.39;96462.13;5100914;27;20109;-79
2023/02/27 00:22:42;;;;;;;18.55;5.80;;;;;;;13.26;89.68;96461.81;5113226;27;20138;-80
2023/02/27 00:25:08;;;;;;;28.42;6.30;;;;;;;13.23;87.22;96453.19;5097518;27;20027;-80
2023/02/27 00:27:35;;;;;;;22.00;5.45;;;;;;;13.26;86.04;96452.94;5128888;27;20062;-80
2023/02/27 00:30:03;;;;;;;29.90;5.70;;;;;;;13.30;91.23;96462.41;5097552;27;20471;-79
2023/02/27 00:32:28;;;;;;;32.58;5.97;;;;;;;13.25;92.96;96454.78;5114523;27;20410;-79
2023/02/27 00:34:54;;;;;;;19.88;5.72;;;;;;;13.24;92.16;96455.75;5097321;28;20023;-79
2023/02/27 00:37:19;;;;;;;19.35;5.85;;;;;;;13.18;92.73;96450.94;5097433;27;20113;-79
2023/02/27 00:39:45;;;;;;;26.35;6.20;;;;;;;13.17;97.46;96454.59;5113042;28;20019;-79
2023/02/27 00:42:10;;;;;;;28.98;5.50;;;;;;;13.13;97.26;96463.06;5102942;27;20023;-80
2023/02/27 00:44:37;;;;;;;21.70;6.22;;;;;;;12.92;97.70;96457.75;5104205;27;20015;-80
2023/02/27 00:47:03;;;;;;;26.45;5.75;;;;;;;12.83;99.41;96469.28;5149088;27;20414;-79
2023/02/27 00:49:28;;;;;;;23.60;5.78;;;;;;;12.68;100.00;96459.91;5110182;28;20027;-79
2023/02/27 00:51:54;;;;;;;26.50;7.00;;;;;;;12.61;100.00;96486.44;5114562;28;20395;-79
2023/02/27 00:54:19;;;;;;;28.77;8.27;;;;;;;12.52;100.00;96476.47;5097694;28;20469;-79
2023/02/27 00:56:45;;;;;;;22.15;6.47;;;;;;;12.44;100.00;96485.19;5123944;28;20019;-79
2023/02/27 00:59:10;;;;;;;20.55;6.38;;;;;;;12.34;100.00;96476.25;5148891;27;20023;-79
2023/02/27 01:01:36;;;;;;;21.33;6.93;;;;;;;12.25;100.00;96482.41;5114478;28;20031;-80
2023/02/27 01:04:02;;;;;;;21.95;7.18;;;;;;;12.02;100.00;96466.59;5115106;28;20027;-80
2023/02/27 01:06:27;;;;;;;33.60;6.72;;;;;;;11.91;100.00;96473.69;5148502;27;20525;-79
2023/02/27 01:08:54;;;;;;;19.27;6.43;;;;;;;11.71;100.00;96481.72;5131064;28;20023;-79
2023/02/27 01:11:20;;;;;;;22.00;6.90;;;;;;;11.74;100.00;96494.84;5146240;27;20019;-80
2023/02/27 01:13:45;;;;;;;14.82;6.00;;;;;;;11.61;100.00;96500.34;5105327;28;20023;-79
2023/02/27 01:16:12;;;;;;;27.08;6.53;;;;;;;11.56;100.00;96488.31;5104544;28;20027;-80
2023/02/27 01:18:37;;;;;;;24.65;6.78;;;;;;;11.50;100.00;96491.50;5097120;27;20015;-79
2023/02/27 01:21:03;;;;;;;22.08;6.65;;;;;;;11.43;100.00;96501.84;5135385;27;20486;-79
2023/02/27 01:23:29;;;;;;;21.48;6.82;;;;;;;11.37;100.00;96489.84;5103293;27;20524;-79
2023/02/27 01:25:54;;;;;;;24.77;6.75;;;;;;;11.33;100.00;96496.41;5118249;27;20064;-80
2023/02/27 01:28:20;;;;;;;24.45;7.43;;;;;;;11.21;100.00;96502.75;5102319;27;20388;-79
2023/02/27 01:30:46;;;;;;;28.70;6.85;;;;;;;11.24;100.00;96510.53;5138679;27;20415;-79
2023/02/27 01:33:11;;;;;;;16.67;5.88;;;;;;;11.20;100.00;96502.88;5101188;27;20023;-79
2023/02/27 01:35:38;;;;;;;20.08;6.65;;;;;;;11.11;100.00;96517.00;5153835;27;20015;-78
2023/02/27 01:38:03;;;;;;;24.10;7.07;;;;;;;11.05;100.00;96515.66;5144721;27;20464;-79
2023/02/27 01:40:29;;;;;;;23.45;6.82;;;;;;;10.98;100.00;96519.84;5103004;27;20023;-80
2023/02/27 01:42:54;;;;;;;28.85;6.88;;;;;;;10.88;100.00;96516.19;5169583;27;20063;-79
2023/02/27 01:45:33;;;;;;;23.15;7.55;;;;;;;10.94;100.00;96533.56;5100664;27;20131;-78
2023/02/27 01:51:21;;;;;;;18.73;6.93;;;;;;;10.84;100.00;96530.75;5134085;27;20406;-80
2023/02/27 01:53:48;;;;;;;24.52;6.95;;;;;;;10.94;100.00;96541.59;5101340;27;20023;-79
2023/02/27 01:56:26;;;;;;;22.27;6.97;;;;;;;10.97;100.00;96534.19;5113100;27;20039;-79
2023/02/27 01:58:57;;;;;;;27.58;6.75;;;;;;;10.97;100.00;96533.31;5108562;27;20038;-79
2023/02/27 02:01:23;;;;;;;15.85;6.53;;;;;;;11.03;100.00;96556.91;5119004;27;20076;-79
2023/02/27 02:04:07;;;;;;;23.08;6.68;;;;;;;11.08;100.00;96566.25;5109143;27;20022;-79
2023/02/27 02:06:34;;;;;;;21.63;6.53;;;;;;;11.05;100.00;96566.50;5123115;27;20038;-79
2023/02/27 02:09:00;;;;;;;21.10;7.30;;;;;;;11.02;100.00;96565.91;5108352;27;20023;-79
2023/02/27 02:11:27;;;;;;;23.27;6.97;;;;;;;11.06;100.00;96572.72;5104331;27;20083;-79
2023/02/27 02:13:57;;;;;;;21.05;6.95;;;;;;;11.10;100.00;96575.03;5096549;28;20035;-79
2023/02/27 02:16:37;;;;;;;27.08;7.65;;;;;;;11.11;100.00;96574.06;5091959;27;20038;-79
2023/02/27 02:19:24;;;;;;;23.90;6.88;;;;;;;11.13;100.00;96585.50;5127018;27;20027;-79
2023/02/27 02:22:11;;;;;;;18.77;7.35;;;;;;;11.21;100.00;96593.75;5135195;27;20129;-79
2023/02/27 02:25:14;;;;;;;26.42;6.28;;;;;;;11.23;100.00;96605.19;5133994;27;20486;-79
2023/02/27 02:28:00;;;;;;;30.33;7.43;;;;;;;11.17;100.00;96611.03;5134072;27;20029;-80
2023/02/27 02:30:38;;;;;;;17.85;6.75;;;;;;;11.31;100.00;96626.88;5124232;27;20066;-79
2023/02/27 02:33:34;;;;;;;25.30;6.53;;;;;;;11.32;100.00;96636.56;5131544;27;20055;-80
2023/02/27 02:36:03;;;;;;;26.23;7.13;;;;;;;11.38;100.00;96645.97;5118065;27;20098;-79
2023/02/27 02:38:50;;;;;;;25.70;8.60;;;;;;;11.30;100.00;96635.84;5133810;27;20110;-79
2023/02/27 02:41:21;;;;;;;26.58;7.57;;;;;;;11.22;100.00;96643.66;5122686;27;20027;-79
2023/02/27 02:43:53;;;;;;;23.65;6.60;;;;;;;11.09;100.00;96653.63;5131511;27;20401;-79
2023/02/27 02:46:34;;;;;;;27.80;7.47;;;;;;;10.95;100.00;96656.50;5118109;27;20028;-79
2023/02/27 02:49:06;;;;;;;23.77;6.75;;;;;;;10.93;100.00;96679.84;5099260;27;20019;-79
2023/02/27 02:51:43;;;;;;;17.60;6.80;;;;;;;10.86;100.00;96684.81;5116717;27;20080;-79
2023/02/27 02:54:13;;;;;;;27.00;7.47;;;;;;;10.79;100.00;96699.66;5104284;27;20035;-79
2023/02/27 02:56:43;;;;;;;17.17;7.72;;;;;;;10.85;100.00;96723.25;5107204;27;20080;-79
2023/02/27 02:59:14;;;;;;;20.58;7.63;;;;;;;10.83;100.00;96772.47;5101461;27;20118;-79
2023/02/27 03:01:44;;;;;;;23.02;7.93;;;;;;;10.38;100.00;96864.13;5113351;27;20042;-78
2023/02/27 03:04:14;;;;;;;20.25;8.07;;;;;;;10.16;100.00;96897.72;5124291;27;20027;-79
2023/02/27 03:06:44;;;;;;;19.63;7.82;;;;;;;9.62;100.00;96901.53;5144532;27;20014;-80
2023/02/27 03:09:33;;;;;;;22.67;6.68;;;;;;;9.60;100.00;96927.47;5135859;27;20507;-79
2023/02/27 03:12:02;;;;;;;0.32;0.17;;;;;;;9.64;100.00;96953.00;5086359;27;20459;-79
2023/02/27 03:14:33;;;;;;;0.30;0.30;;;;;;;9.66;100.00;96961.75;5107972;27;20023;-80
2023/02/27 03:17:03;;;;;;;0.60;0.60;;;;;;;9.75;100.00;96987.88;5142114;27;20482;-80
2023/02/27 03:19:34;;;;;;;1.75;0.98;;;;;;;9.78;100.00;96977.81;5106248;27;20023;-80
2023/02/27 03:22:06;;;;;;;1.20;0.73;;;;;;;9.89;100.00;96987.78;5106056;27;20050;-79
2023/02/27 03:24:41;;;;;;;1.17;1.05;;;;;;;9.72;100.00;96969.38;5119342;27;20031;-81
2023/02/27 03:27:07;;;;;;;1.70;1.20;;;;;;;9.47;100.00;96961.31;5099489;27;20031;-80
2023/02/27 03:29:56;;;;;;;1.27;0.75;;;;;;;9.21;100.00;96945.22;5137763;27;20027;-78
2023/02/27 03:32:26;;;;;;;2.28;1.10;;;;;;;9.24;100.00;96977.03;5099175;27;20034;-79
2023/02/27 03:34:52;;;;;;;1.95;1.13;;;;;;;9.11;100.00;96969.91;5096884;27;20424;-79
2023/02/27 03:37:23;;;;;;;1.85;0.85;;;;;;;9.14;100.00;96980.41;5100496;27;20027;-79
2023/02/27 03:40:05;;;;;;;1.83;1.08;;;;;;;9.11;100.00;96986.78;5123786;27;20114;-79
2023/02/27 03:42:35;;;;;;;20.45;1.08;;;;;;;9.06;100.00;96972.03;5116340;27;20027;-80
2023/02/27 03:45:13;;;;;;;2.08;1.08;;;;;;;8.98;100.00;96975.19;5110672;27;20062;-80
2023/02/27 03:47:38;;;;;;;1.80;0.73;;;;;;;8.98;100.00;96993.88;5100172;27;20027;-79
2023/02/27 03:50:04;;;;;;;1.85;0.93;;;;;;;9.05;100.00;96997.00;5104365;27;20486;-80
2023/02/27 03:52:30;;;;;;;1.58;0.88;;;;;;;9.03;100.00;96999.78;5124465;27;20474;-79
2023/02/27 03:55:10;;;;;;;0.52;0.50;;;;;;;8.97;100.00;97000.19;5100485;27;20060;-79
2023/02/27 03:57:36;;;;;;;0.50;0.50;;;;;;;8.91;100.00;97019.25;5100618;27;20474;-79
2023/02/27 04:00:06;;;;;;;0.95;0.90;;;;;;;8.85;100.00;97016.09;5147323;27;20034;-79
2023/02/27 04:02:32;;;;;;;0.70;0.70;;;;;;;8.94;100.00;97042.19;5137599;27;20135;-81
2023/02/27 04:04:57;;;;;;;1.05;1.02;;;;;;;9.02;100.00;97050.53;5127961;27;20495;-81
2023/02/27 04:07:28;;;;;;;1.30;1.20;;;;;;;9.14;100.00;97050.63;5140476;27;20109;-81
2023/02/27 04:10:06;;;;;;;0.35;0.35;;;;;;;9.23;100.00;97050.03;5132955;27;20163;-81
2023/02/27 04:12:53;;;;;;;0.52;0.52;;;;;;;9.32;100.00;97047.75;5131010;27;20066;-81
2023/02/27 04:15:41;;;;;;;0.20;0.20;;;;;;;9.41;100.00;97044.47;5133105;27;20042;-81
2023/02/27 04:18:10;;;;;;;1.35;1.02;;;;;;;9.53;100.00;97065.03;5121631;27;20023;-81
2023/02/27 04:20:43;;;;;;;0.43;0.43;;;;;;;9.44;100.00;97065.63;5118372;27;20026;-81
2023/02/27 04:23:15;;;;;;;1.70;1.02;;;;;;;9.39;100.00;97079.25;5116580;27;20055;-80
2023/02/27 04:25:44;;;;;;;1.75;1.65;;;;;;;9.10;100.00;97067.81;5105504;27;20099;-81
2023/02/27 04:28:20;;;;;;;1.65;1.15;;;;;;;8.92;100.00;97062.78;5127172;27;20027;-81
2023/02/27 04:30:54;;;;;;;1.30;0.80;;;;;;;8.92;100.00;97076.94;5122256;27;20038;-81
2023/02/27 04:33:46;;;;;;;1.13;0.57;;;;;;;8.93;100.00;97099.13;5099213;27;20028;-78
2023/02/27 04:36:17;;;;;;;1.37;0.90;;;;;;;8.78;100.00;97098.28;5088329;27;20023;-81
2023/02/27 04:38:48;;;;;;;3.00;1.03;;;;;;;8.68;100.00;97098.00;5099362;27;20025;-80
2023/02/27 04:41:22;;;;;;;0.40;0.40;;;;;;;8.51;100.00;97100.84;5113375;27;20272;-80
2023/02/27 04:43:48;;;;;;;1.65;1.13;;;;;;;8.51;100.00;97126.66;5106147;28;20023;-80
2023/02/27 04:46:16;;;;;;;0.77;0.77;;;;;;;8.42;100.00;97135.19;5100679;27;20090;-80
2023/02/27 04:49:03;;;;;;;3.67;1.58;;;;;;;8.39;100.00;97140.72;5098755;27;20037;-82
2023/02/27 04:51:39;;;;;;;13.32;1.48;;;;;;;8.34;100.00;97153.44;5096825;28;20176;-81
2023/02/27 04:54:11;;;;;;;1.15;1.05;;;;;;;8.30;100.00;97168.75;5090952;28;20031;-81
2023/02/27 04:56:41;;;;;;;0.98;0.95;;;;;;;8.15;100.00;97166.97;5138866;27;20108;-83
2023/02/27 04:59:16;;;;;;;4.05;3.30;;;;;;;7.95;100.00;97173.44;5135331;27;20061;-80
2023/02/27 05:02:10;;;;;;;2.35;0.93;;;;;;;7.93;100.00;97185.13;5103494;28;20027;-81
2023/02/27 05:04:37;;;;;;;1.27;1.10;;;;;;;7.87;100.00;97191.66;5105711;28;20039;-81
2023/02/27 05:07:05;;;;;;;4.72;2.22;;;;;;;7.80;100.00;97213.38;5111220;28;20038;-81
2023/02/27 05:09:45;;;;;;;1.83;1.45;;;;;;;7.80;100.00;97227.56;5098049;28;20031;-81
2023/02/27 05:12:13;;;;;;;1.73;1.45;;;;;;;7.71;100.00;97244.06;5107760;28;20062;-80
2023/02/27 05:14:59;;;;;;;2.88;2.13;;;;;;;7.71;100.00;97244.06;5114493;28;20037;-79
2023/02/27 05:17:31;;;;;;;6.10;3.63;;;;;;;7.76;100.00;97254.44;5104016;28;20406;-79
2023/02/27 05:19:56;;;;;;;13.02;3.33;;;;;;;7.81;100.00;97271.88;5143667;27;20023;-81
2023/02/27 05:22:34;;;;;;;4.20;1.75;;;;;;;7.79;100.00;97272.88;5082507;28;20048;-81
2023/02/27 05:25:18;;;;;;;5.45;1.23;;;;;;;7.78;100.00;97273.84;5084249;28;20024;-81
2023/02/27 05:28:00;;;;;;;2.25;1.65;;;;;;;7.76;100.00;97281.91;5088548;28;20028;-80
2023/02/27 05:30:35;;;;;;;1.30;1.20;;;;;;;7.76;100.00;97273.94;5086710;28;20487;-79
2023/02/27 05:33:06;;;;;;;2.78;1.63;;;;;;;7.86;100.00;97291.13;5100730;28;20063;-79
2023/02/27 05:35:42;;;;;;;3.50;2.22;;;;;;;7.77;100.00;97274.78;5108316;28;20027;-86
2023/02/27 05:38:07;;;;;;;1.33;1.23;;;;;;;7.86;100.00;97299.09;5076360;28;20055;-81
2023/02/27 05:40:36;;;;;;;3.75;2.20;;;;;;;7.90;100.00;97306.00;5092840;28;20031;-79
2023/02/27 05:43:03;;;;;;;1.27;1.17;;;;;;;7.99;100.00;97315.28;5082734;28;20028;-80
2023/02/27 05:45:31;;;;;;;5.00;1.42;;;;;;;8.02;100.00;97310.63;5068444;28;20036;-80
2023/02/27 05:48:07;;;;;;;3.17;1.75;;;;;;;8.06;100.00;97325.47;5070972;28;20058;-79
2023/02/27 05:50:34;;;;;;;1.77;1.13;;;;;;;8.12;100.00;97314.47;5089213;28;20039;-79
2023/02/27 05:53:04;;;;;;;1.67;1.58;;;;;;;8.25;100.00;97329.78;5071891;28;20658;-80
2023/02/27 05:55:34;;;;;;;4.10;2.67;;;;;;;8.29;100.00;97328.69;5071165;28;20036;-80
2023/02/27 05:58:09;;;;;;;2.03;1.70;;;;;;;8.45;100.00;97342.88;5103504;28;20085;-80
2023/02/27 06:00:45;;;;;;;2.83;1.48;;;;;;;8.51;100.00;97343.41;5068462;28;20517;-78
2023/02/27 06:03:11;;;;;;;4.72;2.75;;;;;;;8.68;100.00;97339.75;5082250;28;20123;-85
2023/02/27 06:05:40;;;;;;;1.95;1.27;;;;;;;8.77;100.00;97347.22;5102659;28;20039;-80
2023/02/27 06:08:05;;;;;;;5.05;2.88;;;;;;;8.87;100.00;97345.75;5074978;28;20118;-79
2023/02/27 06:10:31;;;;;;;2.88;1.23;;;;;;;9.05;100.00;97350.00;5075950;28;20047;-80
2023/02/27 06:12:57;;;;;;;2.60;1.42;;;;;;;9.08;100.00;97323.13;5092488;28;20060;-83
2023/02/27 06:15:22;;;;;;;2.50;1.15;;;;;;;9.14;100.00;97313.91;5072997;28;20020;-80
2023/02/27 06:17:48;;;;;;;3.33;1.20;;;;;;;9.31;100.00;97303.09;5090475;28;20077;-80
2023/02/27 06:20:14;;;;;;;1.20;1.13;;;;;;;9.24;100.00;97291.91;5074998;28;20479;-81
2023/02/27 06:22:39;;;;;;;0.80;0.77;;;;;;;9.32;100.00;97293.28;5108103;27;20130;-82
2023/02/27 06:25:05;;;;;;;1.83;1.55;;;;;;;9.35;100.00;97309.09;5141544;27;20053;-80
2023/02/27 06:27:31;;;;;;;1.88;1.42;;;;;;;9.47;100.00;97308.34;5092901;28;20055;-80
2023/02/27 06:29:56;;;;;;;5.05;1.25;;;;;;;9.64;100.00;97316.16;5112882;27;20119;-80
2023/02/27 06:32:24;;;;;;;18.58;3.38;;;;;;;9.84;100.00;97306.91;5104206;27;20039;-82
2023/02/27 06:34:50;;;;;;;7.30;2.45;;;;;;;9.93;100.00;97322.38;5124646;27;20080;-80
2023/02/27 06:37:15;;;;;;;2.65;1.85;;;;;;;9.72;100.00;97317.41;5105942;27;20027;-80
2023/02/27 06:39:41;;;;;;;2.08;1.67;;;;;;;9.49;100.00;97295.75;5113176;27;20098;-80
2023/02/27 06:42:06;;;;;;;3.00;1.83;;;;;;;9.43;100.00;97288.13;5130106;27;20058;-81
2023/02/27 06:44:32;;;;;;;2.35;1.83;;;;;;;9.42;100.00;97291.72;5120989;27;20115;-81
2023/02/27 06:46:57;;;;;;;10.45;1.70;;;;;;;9.35;100.00;97298.41;5105560;27;20027;-80
2023/02/27 06:49:23;;;;;;;1.13;1.00;;;;;;;9.56;100.00;97316.66;5105931;27;20093;-81
2023/02/27 06:51:48;;;;;;;0.32;0.32;;;;;;;9.40;100.00;97312.34;5105597;27;20090;-81
2023/02/27 06:54:14;;;;;;;1.05;1.05;;;;;;;9.46;100.00;97311.97;5107340;27;20034;-81
2023/02/27 06:56:39;;;;;;;3.20;1.55;;;;;;;9.38;100.00;97314.25;5115089;27;20502;-79
2023/02/27 06:59:05;;;;;;;5.70;2.38;;;;;;;9.33;100.00;97310.97;5121335;27;20019;-80
2023/02/27 07:01:30;;;;;;;5.88;3.13;;;;;;;9.27;100.00;97315.75;5114579;27;20110;-80
2023/02/27 07:03:56;;;;;;;4.03;2.30;;;;;;;9.01;100.00;97305.75;5097157;28;20177;-80
2023/02/27 07:06:21;;;;;;;0.93;0.65;;;;;;;8.89;100.00;97327.84;5117359;27;20058;-81
2023/02/27 07:08:47;;;;;;;0.25;0.22;;;;;;;8.96;100.00;97334.53;5103791;28;20384;-81
2023/02/27 07:11:12;;;;;;;1.05;1.02;;;;;;;8.82;100.00;97328.28;5102001;27;20564;-80
2023/02/27 07:13:38;;;;;;;1.20;1.10;;;;;;;8.62;100.00;97322.31;5104116;27;20043;-80
2023/02/27 07:16:04;;;;;;;5.47;1.27;;;;;;;8.85;100.00;97353.00;5139249;27;20030;-80
2023/02/27 07:18:29;;;;;;;5.10;1.92;;;;;;;8.91;100.00;97355.28;5117884;27;20547;-81
2023/02/27 07:20:55;;;;;;;2.33;1.95;;;;;;;9.10;100.00;97377.28;5101458;27;20118;-81
2023/02/27 07:23:21;;;;;;;1.60;1.20;;;;;;;8.89;100.00;97357.16;5074191;28;20189;-80
2023/02/27 07:25:47;;;;;;;2.90;1.38;;;;;;;8.81;100.00;97367.44;5071827;28;20032;-79
2023/02/27 07:28:13;;;;;;;1.17;1.15;;;;;;;8.92;100.00;97378.31;5071989;28;20066;-79
2023/02/27 07:30:38;;;;;;;3.30;2.70;;;;;;;8.80;100.00;97360.38;5071688;28;20024;-80
2023/02/27 07:33:04;;;;;;;4.95;1.05;;;;;;;9.05;100.00;97378.47;5071943;28;20028;-79
2023/02/27 07:35:31;;;;;;;2.15;1.45;;;;;;;9.15;100.00;97361.84;5072016;28;20086;-79
2023/02/27 07:37:57;;;;;;;1.17;0.98;;;;;;;9.21;100.00;97350.81;5071500;28;20063;-79
2023/02/27 07:40:22;;;;;;;3.95;2.13;;;;;;;9.44;100.00;97354.78;5071453;28;20032;-79
2023/02/27 07:42:48;;;;;;;1.27;1.08;;;;;;;9.59;100.00;97345.84;5071268;28;20039;-80
2023/02/27 07:45:14;;;;;;;4.20;1.42;;;;;;;9.58;100.00;97346.78;5072520;28;20027;-80
2023/02/27 07:47:40;;;;;;;2.85;1.90;;;;;;;9.45;100.00;97355.59;5090476;28;20508;-81
2023/02/27 07:50:06;;;;;;;2.17;1.42;;;;;;;9.43;100.00;97366.41;5071078;28;20056;-79
2023/02/27 07:52:31;;;;;;;3.13;1.67;;;;;;;9.24;100.00;97371.13;5071354;28;20045;-80
2023/02/27 07:54:57;;;;;;;3.88;1.50;;;;;;;8.95;100.00;97369.31;5070594;28;20118;-79
2023/02/27 07:57:22;;;;;;;13.25;2.70;;;;;;;9.03;100.00;97405.25;5070767;28;20456;-80
2023/02/27 07:59:48;;;;;;;4.80;1.52;;;;;;;8.63;100.00;97398.69;5088259;28;20125;-79
2023/02/27 08:02:14;;;;;;;3.85;1.83;;;;;;;8.56;100.00;97415.97;5082613;28;20028;-79
2023/02/27 08:04:39;;;;;;;1.08;1.00;;;;;;;8.76;100.00;97436.19;5071211;28;20036;-79
2023/02/27 08:07:05;;;;;;;7.75;2.85;;;;;;;8.89;100.00;97447.84;5071793;28;20487;-78
2023/02/27 08:09:31;;;;;;;2.80;1.33;;;;;;;9.12;100.00;97458.09;5089099;28;20024;-78
2023/02/27 08:11:57;;;;;;;1.10;1.05;;;;;;;9.33;100.00;97450.63;5070420;28;20036;-79
2023/02/27 08:14:22;;;;;;;2.35;1.90;;;;;;;9.31;100.00;97439.19;5071303;28;20442;-78
2023/02/27 08:16:48;;;;;;;2.75;1.67;;;;;;;9.29;100.00;97424.22;5070961;28;20038;-79
2023/02/27 08:19:14;;;;;;;2.00;1.52;;;;;;;9.29;100.00;97429.56;5088876;28;20043;-79
2023/02/27 08:21:40;;;;;;;1.23;1.15;;;;;;;9.18;100.00;97431.03;5070730;28;20212;-80
2023/02/27 08:24:07;;;;;;;3.33;2.10;;;;;;;9.17;100.00;97440.00;5071310;28;20023;-79
2023/02/27 08:26:32;;;;;;;2.90;1.17;;;;;;;8.99;100.00;97434.84;5088684;28;20036;-79
2023/02/27 08:28:58;;;;;;;2.92;2.30;;;;;;;9.03;100.00;97445.28;5070677;28;20130;-80
2023/02/27 08:31:23;;;;;;;11.60;3.00;;;;;;;9.09;100.00;97457.41;5072369;28;20495;-80
2023/02/27 08:33:49;;;;;;;3.10;1.58;;;;;;;9.23;100.00;97452.97;5072322;28;20113;-79
2023/02/27 08:36:17;;;;;;;3.55;2.33;;;;;;;9.34;100.00;97457.69;5072317;28;20110;-79
2023/02/27 08:38:43;;;;;;;10.23;4.07;;;;;;;9.22;100.00;97443.28;5071749;28;20035;-77
2023/02/27 08:41:09;;;;;;;4.75;2.67;;;;;;;9.11;100.00;97443.00;5070852;28;20047;-82
2023/02/27 08:43:34;;;;;;;4.57;2.78;;;;;;;9.07;100.00;97454.84;5071598;28;20504;-80
2023/02/27 08:46:00;;;;;;;1.67;1.58;;;;;;;9.11;100.00;97450.16;5088671;28;20035;-82
2023/02/27 08:48:26;;;;;;;3.63;2.35;;;;;;;8.97;100.00;97445.63;5087985;28;20066;-77
2023/02/27 08:50:51;;;;;;;1.42;1.33;;;;;;;8.72;100.00;97445.28;5070501;28;20085;-79
2023/02/27 08:53:17;;;;;;;6.47;2.13;;;;;;;8.51;100.00;97449.16;5069979;28;20118;-79
2023/02/27 08:55:42;;;;;;;2.85;1.65;;;;;;;8.43;100.00;97462.06;5086959;28;20108;-79
2023/02/27 08:58:09;;;;;;;1.30;1.23;;;;;;;8.41;100.00;97470.13;5086774;28;20032;-79
2023/02/27 09:00:34;;;;;;;1.77;1.45;;;;;;;8.51;100.00;97497.13;5070444;28;20060;-79
2023/02/27 09:03:00;;;;;;;3.15;1.30;;;;;;;8.50;100.00;97512.25;5087063;28;20134;-78
2023/02/27 09:05:26;;;;;;;1.65;1.10;;;;;;;8.55;100.00;97509.38;5070441;28;20462;-79
2023/02/27 09:07:52;;;;;;;3.67;2.03;;;;;;;8.66;100.00;97509.63;5070132;28;20322;-79
2023/02/27 09:10:17;;;;;;;5.85;1.70;;;;;;;8.78;100.00;97503.63;5069916;28;20142;-79
2023/02/27 09:12:43;;;;;;;2.35;1.15;;;;;;;8.89;100.00;97501.19;5070476;28;20111;-79
2023/02/27 09:15:10;;;;;;;7.07;2.65;;;;;;;8.69;100.00;97485.47;5070312;28;20592;-79
2023/02/27 09:17:36;;;;;;;3.05;1.40;;;;;;;8.83;100.00;97498.88;5063946;28;20030;-79
2023/02/27 09:20:03;;;;;;;1.80;1.45;;;;;;;8.81;100.00;97492.78;5070382;28;20114;-78
2023/02/27 09:22:29;;;;;;;1.85;1.70;;;;;;;9.00;100.00;97479.25;5087064;28;20056;-79
2023/02/27 09:24:55;;;;;;;0.93;0.93;;;;;;;8.84;100.00;97483.75;5087117;28;20036;-79
2023/02/27 09:27:22;;;;;;;1.08;0.88;;;;;;;8.69;100.00;97506.78;5086984;28;20099;-78
2023/02/27 09:29:54;;;;;;;2.35;1.58;;;;;;;8.85;100.00;97509.47;5070925;28;20029;-78
2023/02/27 09:32:21;;;;;;;2.72;1.30;;;;;;;8.87;100.00;97495.09;5103222;28;20487;-79
2023/02/27 09:34:46;;;;;;;1.27;0.88;;;;;;;8.88;100.00;97480.81;5070117;28;20032;-78
2023/02/27 09:37:12;;;;;;;1.40;1.30;;;;;;;8.91;100.00;97498.47;5087958;28;20097;-79
2023/02/27 09:39:37;;;;;;;2.20;1.27;;;;;;;8.99;100.00;97486.41;5070526;28;20111;-78
2023/02/27 09:42:08;;;;;;;2.65;1.65;;;;;;;8.86;100.00;97487.19;5073831;28;20384;-79
2023/02/27 09:44:55;;;;;;;2.85;1.13;;;;;;;8.88;100.00;97483.50;5089907;28;20028;-79
2023/02/27 09:47:20;;;;;;;2.53;1.17;;;;;;;8.74;100.00;97504.72;5074468;28;20051;-79
2023/02/27 09:50:30;;;;;;;2.35;1.80;;;;;;;8.54;100.00;97529.81;5092939;28;20024;-78
2023/02/27 09:52:56;;;;;;;1.70;1.40;;;;;;;8.48;100.00;97550.63;5050070;28;20037;-78
2023/02/27 09:55:22;;;;;;;1.77;1.52;;;;;;;8.51;100.00;97558.44;5092862;28;20067;-78
2023/02/27 09:58:19;;;;;;;1.95;1.38;;;;;;;8.58;100.00;97541.19;5093118;28;20035;-78
2023/02/27 10:00:51;;;;;;;1.33;1.23;;;;;;;8.74;100.00;97542.06;5064555;28;20055;-78
2023/02/27 10:03:22;;;;;;;3.13;2.50;;;;;;;8.84;100.00;97559.28;5092606;28;20032;-79
2023/02/27 10:05:54;;;;;;;5.32;1.83;;;;;;;9.09;100.00;97548.13;5092553;28;20445;-78
2023/02/27 10:08:34;;;;;;;2.97;2.03;;;;;;;9.11;100.00;97555.06;5092437;28;20483;-79
2023/02/27 10:11:06;;;;;;;4.25;1.88;;;;;;;9.20;100.00;97545.69;5092993;28;20116;-79
2023/02/27 10:14:09;;;;;;;3.08;1.65;;;;;;;9.26;100.00;97538.19;5075626;28;20028;-78
2023/02/27 10:16:35;;;;;;;;;;;;;;;9.14;100.00;97533.56;5092069;28;20093;-78
2023/02/27 10:19:28;;;;;;;2.25;0.80;;;;;;;8.85;100.00;97513.00;5092724;28;19912;-78
2023/02/27 10:21:53;;;;;;;;;;;;;;;8.85;100.00;97529.00;5075837;28;20201;-78
2023/02/27 10:24:20;;;;;;;1.48;1.38;;;;;;;8.84;100.00;97545.06;5075458;28;20345;-78
2023/02/27 10:26:46;;;;;;;1.67;1.58;;;;;;;8.84;100.00;97543.28;5093594;28;20027;-79
2023/02/27 10:29:20;;;;;;;1.90;1.65;;;;;;;8.99;100.00;97545.09;5075261;28;20024;-79
2023/02/27 10:31:49;;;;;;;0.95;0.95;;;;;;;9.05;100.00;97546.56;5075874;28;20032;-79
2023/02/27 10:34:16;;;;;;;2.55;2.00;;;;;;;8.82;100.00;97545.19;5092236;28;20028;-78
2023/02/27 10:36:43;;;;;;;3.78;2.08;;;;;;;8.50;100.00;97570.03;5075003;28;20024;-78
2023/02/27 10:39:14;;;;;;;3.13;2.28;;;;;;;8.59;100.00;97586.41;5092350;28;20028;-79
2023/02/27 10:41:40;;;;;;;7.47;1.52;;;;;;;8.70;100.00;97586.69;5091357;28;20032;-79
2023/02/27 10:44:05;;;;;;;1.77;1.65;;;;;;;8.75;100.00;97590.91;5074939;28;20058;-78
2023/02/27 10:46:34;;;;;;;2.78;2.00;;;;;;;8.75;100.00;97593.59;5074961;28;20027;-78
2023/02/27 10:49:04;;;;;;;3.03;1.70;;;;;;;8.81;100.00;97604.78;5075186;28;20028;-79
2023/02/27 10:51:31;;;;;;;3.85;2.35;;;;;;;8.75;100.00;97597.13;5074085;28;20032;-80
2023/02/27 10:54:15;;;;;;;9.38;2.50;;;;;;;8.80;100.00;97607.56;5091749;28;20035;-79
2023/02/27 10:56:44;;;;;;;4.22;2.72;;;;;;;8.92;100.00;97612.22;5057085;28;20512;-79
2023/02/27 10:59:25;;;;;;;1.40;1.17;;;;;;;8.57;100.00;97598.09;5091723;28;20472;-78
2023/02/27 11:01:58;;;;;;;8.83;2.23;;;;;;;8.23;100.00;97609.63;5066778;28;20070;-78
2023/02/27 11:04:33;;;;;;;;;;;;;;;8.30;100.00;97626.22;5075137;28;20270;-78
2023/02/27 11:07:00;;;;;;;5.32;2.20;;;;;;;8.45;100.00;97646.72;5074575;28;19955;-78
2023/02/27 11:09:29;;;;;;;4.07;1.85;;;;;;;8.34;100.00;97641.94;5091586;28;20403;-78
2023/02/27 11:12:28;;;;;;;3.83;2.25;;;;;;;8.29;100.00;97637.81;5066733;28;20040;-78
2023/02/27 11:14:55;;;;;;;5.05;1.42;;;;;;;8.47;100.00;97639.50;5090699;28;20047;-79
2023/02/27 11:17:39;;;;;;;3.53;1.83;;;;;;;8.59;100.00;97639.72;5074682;28;20469;-78
2023/02/27 11:20:34;;;;;;;4.10;2.40;;;;;;;8.50;100.00;97632.22;5067841;28;20016;-79
2023/02/27 11:23:06;;;;;;;1.52;1.10;;;;;;;8.51;100.00;97635.75;5092739;28;20055;-79
2023/02/27 11:25:32;;;;;;;3.07;2.37;;;;;;;8.31;100.00;97633.25;5091460;28;20119;-78
2023/02/27 11:28:24;;;;;;;3.85;2.45;;;;;;;8.58;100.00;97651.31;5074204;28;20051;-79
2023/02/27 11:31:18;;;;;;;1.80;1.60;;;;;;;8.78;100.00;97642.28;5074171;28;20036;-80
2023/02/27 11:33:57;;;;;;;5.68;1.88;;;;;;;8.60;100.00;97614.81;5063191;28;20119;-79
2023/02/27 11:36:47;;;;;;;12.82;1.90;;;;;;;8.97;100.00;97624.34;5091309;28;20403;-79
2023/02/27 11:39:48;;;;;;;5.20;1.75;;;;;;;9.03;100.00;97618.69;5084746;28;20031;-79
2023/02/27 11:42:24;;;;;;;3.63;1.33;;;;;;;8.92;100.00;97614.88;5066760;28;20031;-79
2023/02/27 11:44:56;;;;;;;2.25;1.80;;;;;;;8.95;100.00;97626.22;5090893;28;20119;-78
2023/02/27 11:47:32;;;;;;;2.08;1.27;;;;;;;8.98;100.00;97633.22;5073831;28;20023;-79